Flight Track Log - Related Links

Times and Time Zones

All times are in EDT time to prevent confusion due to time zone crossing. See the CMF48M flight status page for this flight to view local times or setup timezone preferences in your user account.


Time Position Orientation Groundspeed Altitude Reporting Facility
EDT Latitude Longitude Course Direction KTS MPH feet Rate Location/Type
Wed 11:53:38 AM 41.0500 -73.7000 270° West 97 112 1,000  Level New York TRACON
Wed 11:54:38 AM 41.0500 -73.7333 270° West 105 121 1,600 600 Climbing New York TRACON
Wed 11:55:38 AM 41.0667 -73.7667 304° West 105 121 2,200 650 Climbing New York TRACON
Wed 11:56:38 AM 41.0833 -73.8000 304° West 105 121 2,900 600 Climbing New York TRACON
Wed 11:57:38 AM 41.1000 -73.8333 304° West 104 120 3,400 550 Climbing New York TRACON
Wed 11:58:38 AM 41.1167 -73.8667 304° West 109 125 4,000 600 Climbing New York TRACON
Wed 11:59:38 AM 41.1167 -73.9000 270° West 109 125 4,600 550 Climbing New York TRACON
Wed 12:00:38 PM 41.1333 -73.9333 304° West 115 132 5,100 550 Climbing New York TRACON
Wed 12:01:38 PM 41.1500 -73.9667 304° West 110 127 5,700 600 Climbing New York TRACON
Wed 12:02:38 PM 41.1833 -73.9833 339° North 102 117 6,300 550 Climbing New York TRACON
Wed 12:03:38 PM 41.2000 -74.0000 323° Northwest 100 115 6,800 500 Climbing New York TRACON
Wed 12:04:38 PM 41.2333 -74.0000 360° North 100 115 7,300 500 Climbing New York TRACON
Wed 12:05:38 PM 41.2500 -74.0333 304° West 107 123 7,800 350 Climbing New York TRACON
Wed 12:06:38 PM 41.2500 -74.0667 270° West 106 122 8,000 200 Climbing New York TRACON
Wed 12:07:38 PM 41.2500 -74.1167 270° West 133 153 8,200 400 Climbing New York TRACON
Wed 12:08:38 PM 41.2667 -74.1667 294° West 115 132 8,800 350 Climbing New York TRACON
Wed 12:09:38 PM 41.2667 -74.2000 270° West 113 130 8,900 100 Climbing New York TRACON
Wed 12:10:38 PM 41.2833 -74.2500 294° West 137 158 9,000 50 Climbing New York TRACON
Wed 12:11:38 PM 41.2833 -74.3000 270° West 143 165 9,000  Level New York TRACON
Wed 12:12:38 PM 41.2833 -74.3500 270° West 150 173 9,000  Level New York TRACON
Wed 12:13:38 PM 41.3167 -74.4000 312° West 152 175 9,000 -51 Level New York TRACON
Wed 12:15:00 PM 41.3213 -74.4725 275° West  Level FlightAware Approximate
Wed 12:22:00 PM 41.3630 -74.8414 283° West  Level FlightAware Approximate
Wed 12:23:00 PM 41.3717 -74.8933 283° West  Level FlightAware Approximate
Wed 12:24:00 PM 41.3805 -74.9453 283° West  Level FlightAware Approximate
Wed 12:25:00 PM 41.3892 -74.9973 283° West  Level FlightAware Approximate
Wed 12:26:00 PM 41.3979 -75.0494 283° West  Level FlightAware Approximate
Wed 12:27:00 PM 41.4067 -75.1021 283° West  Level FlightAware Approximate
Wed 12:28:00 PM 41.4154 -75.1549 283° West  Level FlightAware Approximate
Wed 12:29:00 PM 41.4242 -75.2077 282° West  Level FlightAware Approximate
Wed 12:30:00 PM 41.4329 -75.2605 282° West  Level FlightAware Approximate
Wed 12:31:00 PM 41.4416 -75.3133 282° West  Level FlightAware Approximate
Wed 12:32:00 PM 41.4502 -75.3661 282° West  Level FlightAware Approximate
Wed 12:32:08 PM 41.4072 -75.4261 254° West 153 176 8,000  Level New York Center
Wed 12:33:00 PM 41.4389 -75.4185 254° West  Level Estimated
Wed 12:33:08 PM 41.4031 -75.4783 264° West 153 176 8,000  Level New York Center
Wed 12:34:00 PM 41.4275 -75.4709 254° West  Level Estimated
Wed 12:34:08 PM 41.3989 -75.5361 265° West 153 176 8,100  Level New York Center
Wed 12:35:00 PM 41.4161 -75.5232 254° West  Level Estimated
Wed 12:35:08 PM 41.3925 -75.5883 261° West 153 176 8,000  Level New York Center
Wed 12:36:00 PM 41.4047 -75.5755 254° West  Level Estimated
Wed 12:36:08 PM 41.3861 -75.6431 261° West 153 176 8,000  Level New York Center
Wed 12:37:08 PM 41.3772 -75.7033 259° West 153 176 8,000  Level New York Center
Wed 12:38:08 PM 41.3731 -75.7528 264° West 153 176 8,000  Level New York Center
Wed 12:39:08 PM 41.3689 -75.8078 264° West 153 176 8,000  Level New York Center
Wed 12:40:08 PM 41.3622 -75.8653 261° West 153 176 8,000  Level New York Center
Wed 12:41:08 PM 41.3558 -75.9147 260° West 153 176 8,000  Level New York Center
Wed 12:42:08 PM 41.3472 -75.9719 259° West 148 170 8,000  Level New York Center
Wed 12:43:08 PM 41.3428 -76.0214 263° West 155 178 8,000  Level New York Center
Wed 12:44:08 PM 41.3383 -76.0764 264° West 160 184 8,000  Level New York Center
Wed 12:45:08 PM 41.3317 -76.1311 261° West 160 184 8,000  Level New York Center
Wed 12:46:08 PM 41.3253 -76.1831 261° West 160 184 8,000  Level New York Center
Wed 12:47:08 PM 41.3186 -76.2350 260° West 155 178 8,000  Level New York Center
Wed 12:48:08 PM 41.3119 -76.2869 260° West 155 178 8,000  Level New York Center
Wed 12:49:08 PM 41.3075 -76.3417 264° West 155 178 8,000  Level New York Center
Wed 12:50:08 PM 41.3028 -76.3939 263° West 155 178 8,000  Level New York Center
Wed 12:51:08 PM 41.3047 -76.4439 273° West 150 173 8,000  Level New York Center
Wed 12:52:08 PM 41.3108 -76.4886 280° West 145 167 8,000  Level New York Center
Wed 12:53:08 PM 41.3169 -76.5358 280° West 139 160 8,000  Level New York Center
Wed 12:54:08 PM 41.3250 -76.5836 283° West 139 160 8,000  Level New York Center
Wed 12:55:08 PM 41.3328 -76.6367 281° West 144 166 8,000  Level New York Center
Wed 12:56:08 PM 41.3406 -76.6872 282° West 144 166 8,000  Level New York Center
Wed 12:57:08 PM 41.3486 -76.7378 282° West 144 166 8,000  Level New York Center
Wed 12:58:08 PM 41.3542 -76.7908 278° West 144 166 8,000 -50 Level New York Center
Wed 12:59:08 PM 41.3642 -76.8386 286° West 144 166 7,900 -50 Descending New York Center
Wed 01:00:08 PM 41.3700 -76.8917 278° West 144 166 7,900  Level New York Center
Wed 01:01:08 PM 41.3797 -76.9422 284° West 144 166 7,900  Level New York Center
Wed 01:02:08 PM 41.3856 -76.9925 279° West 144 166 7,900  Level New York Center
Wed 01:03:08 PM 41.3931 -77.0458 281° West 144 166 7,900  Level New York Center
Wed 01:04:08 PM 41.4008 -77.0964 282° West 144 166 7,900  Level New York Center
Wed 01:05:08 PM 41.4086 -77.1469 282° West 144 166 7,900 34 Level New York Center
Wed 01:07:06 PM 41.4239 -77.2517 281° West 145 167 8,000 34 Climbing Cleveland Center
Wed 01:08:06 PM 41.4294 -77.3011 279° West 145 167 8,000  Level Cleveland Center
Wed 01:09:06 PM 41.4392 -77.3533 284° West 145 167 8,000  Level Cleveland Center
Wed 01:10:06 PM 41.4469 -77.4056 281° West 145 167 8,000  Level Cleveland Center
Wed 01:11:06 PM 41.4525 -77.4581 278° West 145 167 8,000  Level Cleveland Center
Wed 01:12:06 PM 41.4561 -77.5133 275° West 145 167 8,000  Level Cleveland Center
Wed 01:13:06 PM 41.4533 -77.5661 266° West 140 161 8,000  Level Cleveland Center
Wed 01:14:06 PM 41.4547 -77.6214 272° West 140 161 8,000  Level Cleveland Center
Wed 01:15:06 PM 41.4542 -77.6739 269° West 145 167 8,000  Level Cleveland Center
Wed 01:16:06 PM 41.4553 -77.7267 272° West 145 167 8,000  Level Cleveland Center
Wed 01:17:06 PM 41.4547 -77.7792 269° West 145 167 8,000  Level Cleveland Center
Wed 01:18:06 PM 41.4558 -77.8319 272° West 145 167 8,000  Level Cleveland Center
Wed 01:19:06 PM 41.4550 -77.8819 269° West 145 167 8,000  Level Cleveland Center
Wed 01:20:06 PM 41.4564 -77.9372 272° West 145 167 8,000  Level Cleveland Center
Wed 01:21:06 PM 41.4553 -77.9897 268° West 145 167 8,000  Level Cleveland Center
Wed 01:22:06 PM 41.4567 -78.0508 272° West 145 167 8,000  Level Cleveland Center
Wed 01:23:06 PM 41.4558 -78.1061 269° West 145 167 8,000  Level Cleveland Center
Wed 01:24:06 PM 41.4569 -78.1561 272° West 145 167 8,000  Level Cleveland Center
Wed 01:25:06 PM 41.4558 -78.2086 268° West 145 167 8,000  Level Cleveland Center
Wed 01:26:06 PM 41.4550 -78.2642 269° West 145 167 8,000  Level Cleveland Center
Wed 01:27:06 PM 41.4583 -78.3194 275° West 140 161 8,000  Level Cleveland Center
Wed 01:28:06 PM 41.4550 -78.3694 265° West 140 161 8,000  Level Cleveland Center
Wed 01:29:06 PM 41.4539 -78.4222 268° West 140 161 8,000  Level Cleveland Center
Wed 01:30:06 PM 41.4550 -78.4747 272° West 140 161 8,000  Level Cleveland Center
Wed 01:31:06 PM 41.4539 -78.5275 268° West 140 161 8,000  Level Cleveland Center
Wed 01:32:06 PM 41.4547 -78.5800 271° West 140 161 8,000  Level Cleveland Center
Wed 01:33:06 PM 41.4536 -78.6328 268° West 140 161 8,000  Level Cleveland Center
Wed 01:34:06 PM 41.4544 -78.6853 271° West 145 167 8,000  Level Cleveland Center
Wed 01:35:06 PM 41.4533 -78.7381 268° West 145 167 8,000  Level Cleveland Center
Wed 01:36:06 PM 41.4561 -78.7850 275° West 145 167 8,000  Level Cleveland Center
Wed 01:37:06 PM 41.4547 -78.8406 268° West 145 167 8,000  Level Cleveland Center
Wed 01:38:06 PM 41.4536 -78.8931 268° West 145 167 8,000  Level Cleveland Center
Wed 01:39:06 PM 41.4542 -78.9458 271° West 145 167 8,000 200 Level Cleveland Center
Wed 01:40:06 PM 41.4528 -78.9956 268° West 139 160 8,400 350 Climbing Cleveland Center
Wed 01:41:06 PM 41.4492 -79.0372 263° West 127 146 8,700 350 Climbing Cleveland Center
Wed 01:42:06 PM 41.4478 -79.0789 267° West 122 140 9,100 200 Climbing Cleveland Center
Wed 01:43:06 PM 41.4419 -79.1233 260° West 122 140 9,100  Level Cleveland Center
Wed 01:44:06 PM 41.4364 -79.1733 262° West 127 146 9,100  Level Cleveland Center
Wed 01:45:06 PM 41.4433 -79.2231 281° West 132 152 9,100  Level Cleveland Center
Wed 01:46:06 PM 41.4419 -79.2786 268° West 143 165 9,100  Level Cleveland Center
Wed 01:47:06 PM 41.4319 -79.3314 256° West 143 165 9,100 -50 Level Cleveland Center
Wed 01:48:06 PM 41.4264 -79.3842 262° West 143 165 9,000 -50 Descending Cleveland Center
Wed 01:49:06 PM 41.4269 -79.4367 271° West 143 165 9,000  Level Cleveland Center
Wed 01:50:06 PM 41.4275 -79.4864 271° West 143 165 9,000  Level Cleveland Center
Wed 01:51:06 PM 41.4300 -79.5500 273° West 143 165 9,000  Level Cleveland Center
Wed 01:52:06 PM 41.4094 -79.5919 237° Southwest 129 148 9,000  Level Cleveland Center
Wed 01:53:06 PM 41.3722 -79.6092 199° South 129 148 9,000  Level Cleveland Center
Wed 01:54:06 PM 41.3369 -79.6428 216° Southwest 142 163 9,000  Level Cleveland Center
Wed 01:55:06 PM 41.3019 -79.6767 216° Southwest 158 182 9,000 -300 Level Cleveland Center
Wed 01:56:06 PM 41.2625 -79.7186 219° Southwest 164 189 8,400 -550 Descending Cleveland Center
Wed 01:57:06 PM 41.2211 -79.7550 213° Southwest 177 204 7,900 -500 Descending Cleveland Center
Wed 01:58:06 PM 41.1819 -79.7969 219° Southwest 177 204 7,400 -500 Descending Cleveland Center
Wed 02:00:00 PM 41.1087 -79.8289 198° South  Level FlightAware Approximate
Wed 02:07:00 PM 40.8241 -79.8845 185° South  Level FlightAware Approximate
Wed 02:08:00 PM 40.7837 -79.8895 185° South  Level FlightAware Approximate
Wed 02:09:00 PM 40.7433 -79.8946 185° South  Level FlightAware Approximate
Wed 02:10:00 PM 40.7030 -79.8996 185° South  Level FlightAware Approximate
Wed 02:11:00 PM 40.6624 -79.9000 180° South  Level FlightAware Approximate
Wed 02:12:00 PM 40.6218 -79.9000 180° South  Level FlightAware Approximate
Wed 02:13:00 PM 40.5813 -79.9000 180° South  Level FlightAware Approximate
Wed 02:14:00 PM 40.5415 -79.9084 194° South  Level FlightAware Approximate
Wed 02:15:00 PM 40.5017 -79.9167 180° South  Level FlightAware Approximate
Wed 02:16:00 PM 40.4612 -79.9167 180° South  Level FlightAware Approximate
Wed 02:17:00 PM 40.4206 -79.9167 180° South  Level FlightAware Approximate
Wed 02:18:00 PM 40.3801 -79.9167 180° South  Level FlightAware Approximate
Wed 02:19:00 PM 40.3500 -79.9167 North  Level FlightAware Approximate
Wed 02:20:00 PM 40.3544 -79.9302 North  Level Estimated
Wed 02:21:00 PM 40.3544 -79.9302 North  Level Estimated
Wed 02:22:00 PM 40.3544 -79.9302 North  Level Estimated
Wed 02:23:00 PM 40.3544 -79.9302 North  Level Estimated
Wed 02:24:00 PM 40.3544 -79.9302 North  Level Estimated
Wed 02:25:00 PM 40.3544 -79.9302 North  Level Estimated
Wed 02:26:00 PM 40.3544 -79.9302 North  Level Estimated
Wed 02:27:00 PM 40.3544 -79.9302 North  Level Estimated
Wed 02:28:00 PM 40.3544 -79.9302 North  Level Estimated

Login

Don't have an account? Register now (free) for customized features, flight alerts, and more!